Time;durP1;ratioP1;P1;durP2;ratioP2;P2;SDS_P1;SDS_P2;PMS_P1;PMS_P2;Temp;Humidity;BMP_temperature;BMP_pressure;BME280_temperature;BME280_humidity;BME280_pressure;Samples;Min_cycle;Max_cycle;Signal;HPM_P1;HPM_P2
2023/09/19 00:00:57;;;;;;;5.55;1.98;;;;;;;16.91;78.58;100396.44;5016890;28;20057;-74
2023/09/19 00:03:24;;;;;;;5.68;2.30;;;;;;;16.91;78.47;100392.97;5008362;28;20061;-73
2023/09/19 00:05:53;;;;;;;8.55;2.80;;;;;;;16.92;78.93;100381.47;5020013;28;20041;-75
2023/09/19 00:08:23;;;;;;;8.20;2.40;;;;;;;16.93;78.78;100388.44;5018780;28;20041;-76
2023/09/19 00:10:53;;;;;;;11.43;3.50;;;;;;;16.90;78.90;100367.50;5016501;28;20055;-75
2023/09/19 00:13:20;;;;;;;14.52;3.30;;;;;;;16.94;79.07;100376.97;5021723;28;20046;-75
2023/09/19 00:15:49;;;;;;;8.95;3.50;;;;;;;16.95;79.08;100373.41;5015076;28;20049;-75
2023/09/19 00:18:17;;;;;;;7.47;2.95;;;;;;;16.93;78.85;100367.34;5018069;28;20052;-75
2023/09/19 00:20:47;;;;;;;6.07;3.00;;;;;;;16.96;78.97;100372.44;5017752;28;20088;-75
2023/09/19 00:23:15;;;;;;;12.27;3.95;;;;;;;16.98;79.22;100371.44;5018900;28;20099;-75
2023/09/19 00:25:42;;;;;;;10.85;3.55;;;;;;;16.98;79.22;100355.59;5020952;28;20055;-74
2023/09/19 00:28:10;;;;;;;11.02;3.92;;;;;;;16.96;79.20;100344.31;5019852;28;20045;-75
2023/09/19 00:30:38;;;;;;;11.40;3.65;;;;;;;17.00;79.32;100337.06;5020875;28;20053;-75
2023/09/19 00:33:07;;;;;;;11.63;4.10;;;;;;;17.01;79.28;100341.41;5023726;28;20160;-75
2023/09/19 00:35:34;;;;;;;8.77;4.05;;;;;;;16.97;79.35;100326.69;5015472;28;20061;-75
2023/09/19 00:38:01;;;;;;;6.47;4.28;;;;;;;17.02;79.27;100332.59;5019994;28;20045;-75
2023/09/19 00:40:30;;;;;;;8.38;2.78;;;;;;;17.05;79.26;100321.88;5016337;28;20042;-77
2023/09/19 00:42:59;;;;;;;10.20;4.50;;;;;;;17.05;79.58;100322.72;5016786;28;20046;-75
2023/09/19 00:45:28;;;;;;;5.32;3.20;;;;;;;17.05;79.31;100320.06;5017882;28;20037;-75
2023/09/19 00:47:55;;;;;;;13.98;4.18;;;;;;;17.07;79.42;100309.41;5013627;28;20149;-75
2023/09/19 00:50:25;;;;;;;9.23;4.22;;;;;;;17.08;79.50;100316.41;5022952;28;20045;-75
2023/09/19 00:52:57;;;;;;;7.90;3.55;;;;;;;17.09;79.83;100315.47;5027166;28;20045;-75
2023/09/19 00:55:25;;;;;;;7.22;3.33;;;;;;;17.11;79.68;100318.03;5019470;28;20387;-76
2023/09/19 00:57:54;;;;;;;15.25;3.88;;;;;;;17.11;79.82;100305.69;5019503;28;20041;-75
2023/09/19 01:00:21;;;;;;;9.43;4.38;;;;;;;17.13;79.54;100305.59;5019083;28;20467;-75
2023/09/19 01:02:48;;;;;;;15.77;4.57;;;;;;;17.06;79.68;100294.53;5021287;28;20048;-75
2023/09/19 01:05:15;;;;;;;9.07;3.80;;;;;;;17.15;79.81;100306.38;5020070;28;20053;-75
2023/09/19 01:07:44;;;;;;;11.15;3.85;;;;;;;17.13;79.63;100300.31;5016305;28;20045;-74
2023/09/19 01:10:14;;;;;;;8.82;3.55;;;;;;;17.17;79.73;100292.16;5022236;28;20049;-76
2023/09/19 01:12:53;;;;;;;8.75;3.92;;;;;;;17.16;79.78;100287.84;5022401;28;20206;-75
2023/09/19 01:15:29;;;;;;;12.63;3.85;;;;;;;17.16;79.65;100279.03;5020961;28;20045;-76
2023/09/19 01:18:02;;;;;;;11.23;3.75;;;;;;;17.20;79.78;100276.16;5023266;28;20049;-76
2023/09/19 01:20:38;;;;;;;7.57;3.42;;;;;;;17.22;79.71;100273.47;5025666;28;20045;-76
2023/09/19 01:23:16;;;;;;;11.50;3.50;;;;;;;17.23;79.55;100252.25;5019463;28;20069;-75
2023/09/19 01:26:08;;;;;;;12.20;4.55;;;;;;;17.22;79.57;100249.72;5024782;28;20049;-76
2023/09/19 01:28:47;;;;;;;13.35;4.10;;;;;;;17.24;79.94;100242.53;5020700;28;20050;-76
2023/09/19 01:31:19;;;;;;;9.30;5.03;;;;;;;17.25;79.85;100239.81;5025279;28;20056;-75
2023/09/19 01:34:00;;;;;;;11.60;4.85;;;;;;;17.26;79.78;100227.47;5024369;28;20050;-75
2023/09/19 01:36:34;;;;;;;10.98;4.45;;;;;;;17.25;79.93;100215.22;5019505;28;20034;-75
2023/09/19 01:39:05;;;;;;;10.73;5.20;;;;;;;17.28;80.00;100215.06;5020289;28;20041;-76
2023/09/19 01:41:46;;;;;;;9.43;5.03;;;;;;;17.27;80.24;100208.91;5018925;28;20136;-75
2023/09/19 01:44:20;;;;;;;10.95;5.15;;;;;;;17.30;80.23;100216.66;5020981;28;20088;-73
2023/09/19 01:46:48;;;;;;;12.43;4.30;;;;;;;17.31;80.04;100204.31;5018943;28;20046;-72
2023/09/19 01:49:27;;;;;;;12.75;5.47;;;;;;;17.30;80.08;100200.84;5018461;28;20037;-73
2023/09/19 01:52:02;;;;;;;8.93;5.60;;;;;;;17.34;80.20;100198.03;5014654;28;20056;-72
2023/09/19 01:54:37;;;;;;;7.32;4.65;;;;;;;17.34;80.22;100190.94;5018535;28;20045;-72
2023/09/19 01:57:07;;;;;;;;;;;;;;;17.36;79.48;100177.66;5021039;28;20042;-73
2023/09/19 01:59:42;;;;;;;9.77;5.18;;;;;;;17.36;79.87;100172.38;5019315;28;19925;-73
2023/09/19 02:02:11;;;;;;;14.77;4.50;;;;;;;17.34;79.82;100166.34;5021453;28;20046;-73
2023/09/19 02:04:38;;;;;;;10.27;4.93;;;;;;;17.36;80.08;100162.69;5018441;28;20053;-72
2023/09/19 02:07:08;;;;;;;15.20;5.18;;;;;;;17.34;80.33;100145.22;5016526;28;20055;-72
2023/09/19 02:09:38;;;;;;;11.70;5.70;;;;;;;17.37;80.24;100139.75;5014964;28;20066;-73
2023/09/19 02:12:07;;;;;;;12.50;6.50;;;;;;;17.39;80.25;100141.38;5013928;28;20052;-72
2023/09/19 02:14:34;;;;;;;12.90;5.78;;;;;;;17.40;80.28;100129.03;5015655;28;20050;-73
2023/09/19 02:17:00;;;;;;;15.75;6.00;;;;;;;17.38;80.43;100125.63;5022245;28;20045;-73
2023/09/19 02:19:29;;;;;;;10.27;5.43;;;;;;;17.40;80.33;100119.31;5022695;28;20057;-73
2023/09/19 02:21:56;;;;;;;16.23;6.10;;;;;;;17.42;80.65;100116.59;5019281;28;20046;-73
2023/09/19 02:24:26;;;;;;;15.27;5.68;;;;;;;17.42;80.53;100120.09;5021040;28;20595;-74
2023/09/19 02:26:54;;;;;;;15.65;6.13;;;;;;;17.41;80.47;100120.16;5020124;28;20048;-74
2023/09/19 02:29:22;;;;;;;14.77;6.43;;;;;;;17.44;80.46;100119.97;5016690;28;20082;-74
2023/09/19 02:31:49;;;;;;;17.58;6.32;;;;;;;17.35;80.65;100097.59;5018563;28;20061;-74
2023/09/19 02:34:16;;;;;;;11.50;5.63;;;;;;;17.45;80.47;100112.00;5018692;28;20056;-75
2023/09/19 02:36:45;;;;;;;11.13;6.25;;;;;;;17.46;80.59;100092.56;5021968;28;20140;-75
2023/09/19 02:39:12;;;;;;;16.55;6.13;;;;;;;17.48;80.32;100095.13;5020895;28;20041;-75
2023/09/19 02:41:41;;;;;;;16.05;6.88;;;;;;;17.48;80.51;100087.19;5022135;28;20055;-74
2023/09/19 02:44:08;;;;;;;15.25;6.20;;;;;;;17.49;80.57;100080.97;5019306;28;20054;-74
2023/09/19 02:46:36;;;;;;;15.60;6.85;;;;;;;17.49;80.53;100075.69;5015488;28;20050;-74
2023/09/19 02:49:05;;;;;;;17.70;7.35;;;;;;;17.50;80.81;100072.09;5020516;28;20056;-74
2023/09/19 02:51:32;;;;;;;18.17;6.63;;;;;;;17.45;81.03;100055.69;5019808;28;20049;-73
2023/09/19 02:54:02;;;;;;;12.80;7.57;;;;;;;17.51;80.83;100052.69;5017981;28;20042;-75
2023/09/19 02:56:30;;;;;;;10.80;6.82;;;;;;;17.51;80.83;100039.50;5022382;28;20041;-75
2023/09/19 02:58:57;;;;;;;12.95;7.03;;;;;;;17.51;80.77;100042.13;5014243;28;20049;-75
2023/09/19 03:01:24;;;;;;;18.80;6.82;;;;;;;17.52;80.88;100027.97;5020634;28;20116;-76
2023/09/19 03:03:51;;;;;;;15.32;7.57;;;;;;;17.52;80.94;100020.06;5016669;28;20050;-75
2023/09/19 03:06:19;;;;;;;16.13;7.43;;;;;;;17.52;81.04;100015.63;5019597;28;20506;-75
2023/09/19 03:08:48;;;;;;;17.48;8.25;;;;;;;17.53;81.04;100009.41;5017588;28;20079;-75
2023/09/19 03:11:21;;;;;;;15.55;7.10;;;;;;;17.47;81.13;99998.34;5016393;28;20579;-77
2023/09/19 03:13:52;;;;;;;13.27;7.32;;;;;;;17.53;80.95;99996.22;5016141;28;20041;-75
2023/09/19 03:16:21;;;;;;;13.27;7.60;;;;;;;17.55;81.08;99998.75;5020472;28;20041;-75
2023/09/19 03:18:48;;;;;;;16.42;8.57;;;;;;;17.54;81.06;99991.78;5017773;28;20052;-75
2023/09/19 03:21:16;;;;;;;14.02;8.05;;;;;;;17.56;81.21;99981.97;5022086;28;20041;-76
2023/09/19 03:23:45;;;;;;;15.35;8.52;;;;;;;17.58;81.19;99980.06;5019108;28;20048;-75
2023/09/19 03:26:14;;;;;;;16.13;8.60;;;;;;;17.57;81.20;99978.38;5022005;28;20129;-74
2023/09/19 03:28:43;;;;;;;14.98;8.73;;;;;;;17.58;81.31;99980.06;5019978;28;20045;-75
2023/09/19 03:31:10;;;;;;;16.67;9.60;;;;;;;17.58;81.21;99969.50;5024599;28;20120;-76
2023/09/19 03:33:37;;;;;;;15.52;8.35;;;;;;;17.56;81.51;99952.94;5018360;28;20046;-75
2023/09/19 03:36:05;;;;;;;13.60;7.85;;;;;;;17.55;81.13;99948.56;5019515;28;20046;-76
2023/09/19 03:38:34;;;;;;;18.75;8.55;;;;;;;17.59;81.08;99944.81;5018557;28;20046;-78
2023/09/19 03:41:01;;;;;;;15.40;8.70;;;;;;;17.57;81.38;99941.41;5021525;28;20066;-77
2023/09/19 03:43:28;;;;;;;13.88;8.40;;;;;;;17.61;81.22;99937.63;5020763;28;20041;-76
2023/09/19 03:45:57;;;;;;;16.98;7.95;;;;;;;17.62;81.12;99928.78;5021684;28;20050;-77
2023/09/19 03:48:24;;;;;;;21.40;9.15;;;;;;;17.59;81.17;99914.91;5019609;28;20045;-76
2023/09/19 03:50:52;;;;;;;20.52;8.43;;;;;;;17.61;81.29;99927.06;5021873;28;20100;-76
2023/09/19 03:53:19;;;;;;;17.63;8.80;;;;;;;17.61;80.97;99910.38;5026471;28;20049;-76
2023/09/19 03:55:47;;;;;;;19.73;8.70;;;;;;;17.60;81.27;99906.03;5019140;28;20049;-76
2023/09/19 03:58:14;;;;;;;17.75;9.57;;;;;;;17.61;81.15;99892.72;5020527;28;20045;-76
2023/09/19 04:00:41;;;;;;;18.92;9.90;;;;;;;17.61;81.36;99884.81;5014600;28;20478;-77
2023/09/19 04:03:10;;;;;;;18.98;8.73;;;;;;;17.62;81.33;99875.13;5020237;28;20049;-77
2023/09/19 04:05:37;;;;;;;14.10;8.70;;;;;;;17.62;81.24;99878.59;5016471;28;20052;-76
2023/09/19 04:08:05;;;;;;;14.48;8.98;;;;;;;17.62;81.40;99883.88;5019877;28;20045;-76
2023/09/19 04:10:32;;;;;;;19.77;10.32;;;;;;;17.62;81.49;99875.13;5020087;28;20060;-77
2023/09/19 04:12:59;;;;;;;20.58;8.70;;;;;;;17.62;81.37;99875.97;5022100;28;20156;-76
2023/09/19 04:15:27;;;;;;;17.52;10.52;;;;;;;17.62;81.30;99872.47;5013108;28;20042;-78
2023/09/19 04:17:54;;;;;;;17.48;9.48;;;;;;;17.63;81.56;99869.72;5016639;28;20128;-77
2023/09/19 04:20:23;;;;;;;18.60;11.07;;;;;;;17.62;81.56;99860.13;5022525;28;20050;-76
2023/09/19 04:22:50;;;;;;;18.88;8.85;;;;;;;17.60;81.55;99856.72;5022549;28;20049;-78
2023/09/19 04:25:17;;;;;;;16.60;9.63;;;;;;;17.64;81.47;99857.38;5021669;28;20045;-76
2023/09/19 04:27:46;;;;;;;22.33;9.77;;;;;;;17.65;81.44;99856.44;5023445;28;20119;-76
2023/09/19 04:30:14;;;;;;;16.35;10.40;;;;;;;17.64;81.52;99852.94;5023527;28;20054;-76
2023/09/19 04:32:41;;;;;;;17.95;9.35;;;;;;;17.64;81.49;99846.81;5025275;28;20104;-77
2023/09/19 04:35:10;;;;;;;17.63;10.02;;;;;;;17.65;81.27;99854.63;5024547;28;20710;-78
2023/09/19 04:37:41;;;;;;;19.85;10.80;;;;;;;17.63;81.55;99840.69;5021809;28;20160;-77
2023/09/19 04:40:12;;;;;;;19.27;10.35;;;;;;;17.65;81.62;99838.78;5024758;28;20458;-76
2023/09/19 04:42:40;;;;;;;16.58;9.45;;;;;;;17.66;81.63;99822.00;5024890;28;20045;-76
2023/09/19 04:45:09;;;;;;;17.05;10.07;;;;;;;17.65;81.57;99812.38;5025202;28;20052;-79
2023/09/19 04:47:38;;;;;;;14.88;9.70;;;;;;;17.67;81.49;99814.91;5029005;28;20059;-80
2023/09/19 04:50:07;;;;;;;24.73;10.90;;;;;;;17.67;81.48;99809.63;5025767;28;20848;-79
2023/09/19 04:52:34;;;;;;;21.40;10.85;;;;;;;17.68;81.55;99816.63;5028303;28;20056;-80
2023/09/19 04:55:03;;;;;;;16.02;10.15;;;;;;;17.68;81.62;99817.47;5033790;28;20045;-80
2023/09/19 04:57:31;;;;;;;20.08;10.60;;;;;;;17.68;81.90;99832.47;5030821;28;20146;-81
2023/09/19 04:59:58;;;;;;;14.90;9.85;;;;;;;17.69;81.79;99832.38;5024355;28;20092;-80
2023/09/19 05:02:25;;;;;;;15.27;9.93;;;;;;;17.70;81.83;99820.00;5027108;28;20107;-78
2023/09/19 05:04:53;;;;;;;19.25;10.05;;;;;;;17.69;81.58;99805.94;5030958;28;20498;-79
2023/09/19 05:07:21;;;;;;;19.88;11.02;;;;;;;17.69;81.75;99813.88;5025738;28;20037;-80
2023/09/19 05:09:48;;;;;;;21.73;11.60;;;;;;;17.69;81.88;99803.31;5027826;28;20133;-80
2023/09/19 05:12:19;;;;;;;20.42;11.45;;;;;;;17.70;82.10;99777.75;5028644;28;20045;-79
2023/09/19 05:14:46;;;;;;;17.42;10.80;;;;;;;17.72;81.90;99789.06;5025561;28;20081;-76
2023/09/19 05:17:16;;;;;;;16.45;11.07;;;;;;;17.71;81.97;99779.47;5022232;28;20044;-76
2023/09/19 05:19:43;;;;;;;20.65;12.10;;;;;;;17.72;82.05;99770.56;5022221;28;20042;-77
2023/09/19 05:22:11;;;;;;;21.90;11.18;;;;;;;17.73;81.96;99770.50;5024375;28;20045;-76
2023/09/19 05:24:39;;;;;;;19.13;11.40;;;;;;;17.73;82.15;99759.94;5022396;28;20041;-76
2023/09/19 05:27:07;;;;;;;21.90;11.18;;;;;;;17.71;82.13;99753.88;5013212;28;20104;-77
2023/09/19 05:29:35;;;;;;;15.98;10.90;;;;;;;17.74;81.99;99756.31;5018815;28;20050;-77
2023/09/19 05:32:03;;;;;;;17.48;11.23;;;;;;;17.71;82.03;99742.47;5017684;28;20048;-77
2023/09/19 05:34:30;;;;;;;20.35;11.68;;;;;;;17.76;81.98;99746.53;5019520;28;20048;-76
2023/09/19 05:36:57;;;;;;;16.77;11.10;;;;;;;17.76;82.01;99750.97;5018004;28;20482;-76
2023/09/19 05:39:24;;;;;;;20.35;9.77;;;;;;;17.76;82.08;99745.69;5023190;28;20107;-77
2023/09/19 05:41:51;;;;;;;18.02;10.45;;;;;;;17.77;82.00;99736.78;5017902;28;20056;-78
2023/09/19 05:44:18;;;;;;;17.88;10.30;;;;;;;17.76;82.05;99730.66;5022305;28;20054;-77
2023/09/19 05:46:48;;;;;;;13.27;8.25;;;;;;;17.80;82.21;99730.50;5017665;28;20065;-76
2023/09/19 05:49:15;;;;;;;11.65;8.27;;;;;;;17.81;82.07;99737.47;5022043;28;20104;-76
2023/09/19 05:51:43;;;;;;;22.40;8.63;;;;;;;17.81;81.98;99724.25;5024838;28;20561;-78
2023/09/19 05:54:11;;;;;;;18.30;8.65;;;;;;;17.81;82.28;99722.47;5022901;28;20038;-74
2023/09/19 05:56:38;;;;;;;15.85;8.82;;;;;;;17.80;82.04;99725.22;5020238;28;20041;-73
2023/09/19 05:59:05;;;;;;;16.00;9.45;;;;;;;17.83;82.14;99725.84;5023071;28;20053;-74
2023/09/19 06:01:34;;;;;;;13.23;9.57;;;;;;;17.84;82.30;99721.41;5021190;28;20054;-74
2023/09/19 06:04:02;;;;;;;19.23;10.85;;;;;;;17.85;82.36;99723.13;5016367;28;20157;-74
2023/09/19 06:06:30;;;;;;;18.95;10.55;;;;;;;17.86;82.66;99714.25;5018499;28;20041;-74
2023/09/19 06:08:57;;;;;;;17.52;11.88;;;;;;;17.82;82.84;99712.75;5018858;28;20418;-75
2023/09/19 06:11:26;;;;;;;20.73;11.38;;;;;;;17.89;82.38;99724.59;5019292;28;20052;-74
2023/09/19 06:13:53;;;;;;;24.27;13.57;;;;;;;17.83;82.62;99709.16;5021095;28;20194;-73
2023/09/19 06:16:20;;;;;;;20.15;11.65;;;;;;;17.87;82.61;99714.16;5021182;28;20054;-74
2023/09/19 06:18:47;;;;;;;24.92;13.25;;;;;;;17.93;82.67;99720.81;5019839;28;20048;-74
2023/09/19 06:21:15;;;;;;;29.77;12.75;;;;;;;17.92;82.75;99719.13;5022819;28;20053;-73
2023/09/19 06:23:42;;;;;;;29.92;13.07;;;;;;;17.84;82.67;99680.00;5018552;28;20041;-74
2023/09/19 06:26:09;;;;;;;23.35;12.60;;;;;;;17.95;82.81;99695.97;5004608;28;20602;-76
2023/09/19 06:28:36;;;;;;;23.60;12.75;;;;;;;17.96;82.91;99710.06;5022871;28;20470;-78
2023/09/19 06:31:07;;;;;;;20.33;12.52;;;;;;;17.96;82.72;99704.78;5020297;28;20041;-77
2023/09/19 06:33:35;;;;;;;16.17;10.27;;;;;;;17.95;82.99;99692.50;5022882;28;20057;-77
2023/09/19 06:36:04;;;;;;;16.27;10.68;;;;;;;17.98;83.12;99687.84;5020987;28;20869;-80
2023/09/19 06:38:34;;;;;;;19.52;10.18;;;;;;;17.99;82.87;99691.38;5026540;28;20058;-81
2023/09/19 06:41:04;;;;;;;16.60;10.05;;;;;;;18.00;83.02;99694.84;5026840;28;20056;-80
2023/09/19 06:43:32;;;;;;;16.95;10.88;;;;;;;18.01;82.94;99685.97;5024349;28;20068;-80
2023/09/19 06:45:59;;;;;;;16.95;10.00;;;;;;;18.02;82.77;99680.59;5024017;28;20487;-79
2023/09/19 06:48:26;;;;;;;14.18;8.65;;;;;;;18.02;82.86;99677.94;5025857;28;20045;-79
2023/09/19 06:50:54;;;;;;;18.67;11.38;;;;;;;18.00;82.99;99674.53;5022917;28;20046;-79
2023/09/19 06:53:23;;;;;;;16.38;10.55;;;;;;;18.04;82.84;99678.66;5028017;28;20042;-78
2023/09/19 06:55:51;;;;;;;15.50;11.30;;;;;;;18.05;83.26;99675.09;5020492;28;20118;-82
2023/09/19 06:58:19;;;;;;;12.52;11.23;;;;;;;18.04;83.02;99670.75;5019780;28;20049;-76
2023/09/19 07:00:46;;;;;;;17.48;11.10;;;;;;;18.06;83.10;99674.13;5021150;28;20049;-73
2023/09/19 07:03:16;;;;;;;22.23;11.82;;;;;;;18.07;83.14;99675.84;5016989;28;20065;-74
2023/09/19 07:05:43;;;;;;;16.15;12.05;;;;;;;18.08;83.29;99681.97;5021105;28;20053;-72
2023/09/19 07:08:12;;;;;;;18.98;12.73;;;;;;;18.09;83.22;99679.22;5019811;28;20124;-71
2023/09/19 07:10:40;;;;;;;26.08;13.15;;;;;;;18.09;83.03;99689.78;5019670;28;20569;-73
2023/09/19 07:13:10;;;;;;;32.33;12.75;;;;;;;18.10;83.06;99674.75;5022594;28;20137;-74
2023/09/19 07:15:46;;;;;;;30.20;12.27;;;;;;;18.09;82.98;99655.44;5018275;28;20683;-72
2023/09/19 07:18:14;;;;;;;17.08;11.20;;;;;;;18.10;82.97;99675.63;5019316;28;20053;-72
2023/09/19 07:20:45;;;;;;;14.98;11.02;;;;;;;18.10;83.05;99680.06;5018962;28;20042;-73
2023/09/19 07:23:13;;;;;;;15.13;9.65;;;;;;;18.10;83.12;99670.34;5021740;28;20057;-72
2023/09/19 07:25:40;;;;;;;16.25;9.70;;;;;;;18.10;83.18;99654.50;5020206;28;20045;-73
2023/09/19 07:28:09;;;;;;;15.00;9.63;;;;;;;18.10;83.28;99656.25;5018756;28;20049;-74
2023/09/19 07:30:38;;;;;;;11.10;9.02;;;;;;;18.12;83.08;99647.28;5018859;28;20123;-73
2023/09/19 07:33:06;;;;;;;11.82;8.20;;;;;;;18.11;83.03;99642.97;5021201;28;20076;-74
2023/09/19 07:35:33;;;;;;;15.68;7.85;;;;;;;18.12;82.79;99644.63;5019621;28;20049;-76
2023/09/19 07:38:01;;;;;;;12.55;7.20;;;;;;;18.12;83.02;99631.44;5021594;28;20042;-75
2023/09/19 07:40:28;;;;;;;7.88;7.07;;;;;;;18.13;82.77;99627.84;5012456;28;20057;-73
2023/09/19 07:42:56;;;;;;;12.75;6.95;;;;;;;18.13;82.75;99617.28;5021166;28;20068;-72
2023/09/19 07:45:25;;;;;;;16.50;7.85;;;;;;;18.12;82.91;99610.28;5015557;28;20050;-73
2023/09/19 07:47:52;;;;;;;9.20;6.18;;;;;;;18.13;82.83;99606.72;5019029;28;20045;-76
2023/09/19 07:50:20;;;;;;;6.47;5.78;;;;;;;18.14;82.98;99608.41;5014313;28;20056;-74
2023/09/19 07:52:47;;;;;;;7.82;5.40;;;;;;;18.14;82.73;99607.56;5018284;28;20128;-73
2023/09/19 07:55:16;;;;;;;8.05;5.47;;;;;;;18.13;82.80;99601.44;5017211;28;20045;-72
2023/09/19 07:57:43;;;;;;;10.15;5.78;;;;;;;18.12;83.00;99601.50;5021040;28;20053;-76
2023/09/19 08:00:11;;;;;;;16.65;8.68;;;;;;;18.15;83.16;99588.09;5022805;28;20429;-74
2023/09/19 08:02:41;;;;;;;17.48;8.50;;;;;;;18.14;83.25;99584.59;5019425;28;20045;-73
2023/09/19 08:05:11;;;;;;;15.75;8.77;;;;;;;18.15;83.23;99588.94;5022432;28;20475;-74
2023/09/19 08:07:38;;;;;;;12.38;8.32;;;;;;;18.16;83.05;99590.66;5023297;28;20073;-73
2023/09/19 08:10:07;;;;;;;12.70;9.55;;;;;;;18.15;83.31;99574.88;5019333;28;20057;-74
2023/09/19 08:12:35;;;;;;;31.73;12.95;;;;;;;18.18;83.37;99580.78;5020616;28;20084;-73
2023/09/19 08:15:03;;;;;;;19.08;10.80;;;;;;;18.18;83.50;99582.59;5018400;28;20553;-74
2023/09/19 08:17:34;;;;;;;23.35;10.40;;;;;;;18.20;83.68;99583.34;5021262;28;20053;-72
2023/09/19 08:20:04;;;;;;;19.13;12.68;;;;;;;18.22;83.79;99583.25;5026018;28;20487;-72
2023/09/19 08:22:32;;;;;;;29.80;12.13;;;;;;;18.24;83.69;99589.25;5021137;28;20057;-72
2023/09/19 08:24:59;;;;;;;21.23;12.10;;;;;;;18.22;83.96;99583.25;5021687;28;21011;-72
2023/09/19 08:27:27;;;;;;;18.88;11.38;;;;;;;18.26;83.95;99592.66;5024202;28;20135;-73
2023/09/19 08:29:54;;;;;;;38.05;13.23;;;;;;;18.28;84.06;99590.75;5019250;28;20495;-71
2023/09/19 08:32:24;;;;;;;27.88;12.57;;;;;;;18.30;83.99;99588.81;5023295;28;20058;-71
2023/09/19 08:34:51;;;;;;;25.90;11.45;;;;;;;18.31;83.88;99594.00;5018935;28;20048;-72
2023/09/19 08:37:19;;;;;;;20.95;12.13;;;;;;;18.32;84.13;99590.41;5023736;28;20044;-72
2023/09/19 08:39:46;;;;;;;32.30;12.70;;;;;;;18.35;84.08;99592.00;5021843;28;20821;-72
2023/09/19 08:42:14;;;;;;;33.08;12.27;;;;;;;18.36;84.21;99585.78;5020954;28;20407;-72
2023/09/19 08:44:43;;;;;;;18.23;10.30;;;;;;;18.38;83.89;99567.97;5022559;28;20050;-76
2023/09/19 08:47:13;;;;;;;35.83;11.00;;;;;;;18.40;83.98;99571.38;5022965;28;20064;-76
2023/09/19 08:49:54;;;;;;;22.52;11.15;;;;;;;18.42;83.93;99566.84;5021142;28;20045;-76
2023/09/19 08:52:26;;;;;;;18.15;10.85;;;;;;;18.43;83.75;99569.34;5022982;28;20045;-75
2023/09/19 08:54:56;;;;;;;36.15;13.23;;;;;;;18.45;83.80;99557.84;5022991;28;20056;-75
2023/09/19 08:57:24;;;;;;;19.92;11.13;;;;;;;18.47;83.67;99564.72;5022025;28;20418;-76
2023/09/19 08:59:52;;;;;;;22.30;10.93;;;;;;;18.49;83.79;99560.16;5022703;28;20060;-76
2023/09/19 09:02:20;;;;;;;39.22;11.35;;;;;;;18.51;83.56;99560.91;5020257;28;20076;-76
2023/09/19 09:04:49;;;;;;;48.65;12.48;;;;;;;18.54;83.58;99554.53;5021484;28;20050;-77
2023/09/19 09:07:20;;;;;;;27.38;10.18;;;;;;;18.55;83.47;99549.13;5023568;28;20049;-76
2023/09/19 09:09:49;;;;;;;25.60;10.27;;;;;;;18.57;83.42;99541.94;5021571;28;20395;-76
2023/09/19 09:12:16;;;;;;;18.23;10.80;;;;;;;18.58;83.35;99543.63;5020179;28;20505;-76
2023/09/19 09:14:46;;;;;;;32.83;12.45;;;;;;;18.60;83.21;99531.13;5019793;28;21074;-76
2023/09/19 09:17:13;;;;;;;35.65;11.45;;;;;;;18.62;83.19;99523.09;5018881;28;20128;-76
2023/09/19 09:19:41;;;;;;;18.90;9.32;;;;;;;18.63;83.02;99520.34;5019318;28;20053;-76
2023/09/19 09:22:09;;;;;;;22.92;10.52;;;;;;;18.68;83.16;99511.25;5020111;28;20045;-76
2023/09/19 09:24:37;;;;;;;16.45;10.02;;;;;;;18.69;82.91;99513.75;5025593;28;21215;-76
2023/09/19 09:27:08;;;;;;;19.75;10.85;;;;;;;18.65;83.01;99497.28;5022102;28;20083;-75
2023/09/19 09:29:47;;;;;;;19.38;8.80;;;;;;;18.74;82.81;99502.88;5018199;28;20064;-74
2023/09/19 09:32:24;;;;;;;17.63;9.57;;;;;;;18.75;82.75;99507.22;5022106;28;20139;-75
2023/09/19 09:34:53;;;;;;;14.60;9.55;;;;;;;18.76;82.81;99504.47;5020618;28;20417;-74
2023/09/19 09:37:22;;;;;;;64.43;12.63;;;;;;;18.79;83.10;99501.59;5013978;28;20498;-74
2023/09/19 09:39:54;;;;;;;90.18;14.85;;;;;;;18.83;83.34;99502.22;5021292;28;20046;-79
2023/09/19 09:42:35;;;;;;;103.93;15.90;;;;;;;18.87;83.61;99499.25;5021135;28;20045;-75
2023/09/19 09:45:19;;;;;;;61.50;13.13;;;;;;;18.90;83.06;99492.00;5021339;28;20050;-78
2023/09/19 09:47:55;;;;;;;20.73;8.30;;;;;;;18.89;82.62;99499.13;5025825;28;20057;-78
2023/09/19 09:50:39;;;;;;;16.92;9.27;;;;;;;18.95;82.60;99513.69;5020575;28;20045;-77
2023/09/19 09:53:21;;;;;;;54.92;12.70;;;;;;;18.97;82.53;99523.22;5024730;28;20053;-75
2023/09/19 09:56:02;;;;;;;16.95;8.70;;;;;;;19.02;82.18;99542.25;5025600;28;20041;-78
2023/09/19 09:58:32;;;;;;;17.17;9.10;;;;;;;18.98;81.80;99522.28;5026875;28;20486;-76
2023/09/19 10:01:03;;;;;;;59.42;11.35;;;;;;;19.03;81.54;99520.13;5022310;28;20466;-78
2023/09/19 10:03:38;;;;;;;57.75;9.23;;;;;;;19.03;81.34;99509.53;5016133;28;20176;-77
2023/09/19 10:06:18;;;;;;;;;;;;;;;19.05;81.20;99504.97;5024653;28;20069;-78
2023/09/19 10:09:02;;;;;;;305.48;27.98;;;;;;;19.06;81.14;99511.94;5021531;28;19951;-77
2023/09/19 10:11:30;;;;;;;16.90;7.13;;;;;;;19.05;80.98;99510.28;5025750;28;20046;-78
2023/09/19 10:14:06;;;;;;;16.73;7.35;;;;;;;19.06;80.71;99511.94;5022217;28;20058;-77
2023/09/19 10:16:35;;;;;;;13.57;6.70;;;;;;;19.09;80.54;99511.72;5025515;28;20124;-77
2023/09/19 10:19:08;;;;;;;10.73;6.32;;;;;;;19.12;80.58;99504.50;5022962;28;20077;-77
2023/09/19 10:21:39;;;;;;;14.27;6.47;;;;;;;19.12;80.64;99486.81;5020942;28;20049;-77
2023/09/19 10:24:08;;;;;;;11.35;5.95;;;;;;;19.13;80.55;99495.63;5024215;28;20056;-78
2023/09/19 10:26:37;;;;;;;9.45;6.10;;;;;;;19.14;80.54;99487.56;5020434;28;20088;-77
2023/09/19 10:29:10;;;;;;;12.07;5.78;;;;;;;19.15;80.44;99483.13;5025240;28;20052;-78
2023/09/19 10:31:40;;;;;;;11.90;5.55;;;;;;;19.19;80.53;99469.53;5021859;28;20055;-77
2023/09/19 10:34:10;;;;;;;12.02;6.05;;;;;;;19.22;80.70;99473.78;5026673;28;20053;-73
2023/09/19 10:36:38;;;;;;;13.98;6.38;;;;;;;19.26;80.65;99475.22;5019272;28;20053;-73
2023/09/19 10:39:08;;;;;;;15.15;6.35;;;;;;;19.29;80.29;99481.13;5018366;28;20137;-73
2023/09/19 10:41:37;;;;;;;13.73;6.30;;;;;;;19.31;80.21;99468.63;5018954;28;20056;-73
2023/09/19 10:44:06;;;;;;;11.02;5.45;;;;;;;19.35;80.37;99474.50;5018384;28;20106;-73
2023/09/19 10:46:33;;;;;;;5.78;5.28;;;;;;;19.38;80.32;99476.97;5019441;28;20880;-72
2023/09/19 10:49:02;;;;;;;37.78;7.68;;;;;;;19.40;80.43;99477.66;5018810;28;20819;-74
2023/09/19 10:51:36;;;;;;;28.05;7.45;;;;;;;19.43;80.71;99495.13;5021308;28;20132;-76
2023/09/19 10:54:11;;;;;;;9.48;5.20;;;;;;;19.48;80.25;99488.53;5020595;28;21498;-73
2023/09/19 10:56:41;;;;;;;16.85;6.00;;;;;;;19.51;80.37;99487.44;5020264;28;20069;-73
2023/09/19 10:59:12;;;;;;;10.20;4.72;;;;;;;19.54;79.70;99479.25;5018725;28;20053;-73
2023/09/19 11:01:48;;;;;;;19.67;4.85;;;;;;;19.53;79.76;99478.44;5020638;28;20045;-75
2023/09/19 11:04:27;;;;;;;24.52;5.05;;;;;;;19.61;80.05;99479.63;5014608;28;20115;-73
2023/09/19 11:07:08;;;;;;;11.13;3.78;;;;;;;19.63;79.28;99472.41;5021834;28;20072;-73
2023/09/19 11:09:46;;;;;;;12.02;4.15;;;;;;;19.67;79.70;99476.56;5017949;28;20107;-73
2023/09/19 11:12:14;;;;;;;8.05;3.90;;;;;;;19.68;78.50;99472.94;5018559;28;20049;-74
2023/09/19 11:14:45;;;;;;;11.73;3.70;;;;;;;19.71;79.00;99472.72;5021602;28;20103;-74
2023/09/19 11:17:45;;;;;;;5.07;2.85;;;;;;;19.74;78.54;99475.94;5016056;28;20071;-74
2023/09/19 11:20:25;;;;;;;25.13;5.00;;;;;;;19.74;78.46;99478.59;5018794;28;20093;-75
2023/09/19 11:23:26;;;;;;;3.85;3.22;;;;;;;19.77;78.06;99469.56;5018348;28;20041;-74
2023/09/19 11:25:54;;;;;;;5.75;3.15;;;;;;;19.77;77.74;99464.28;5020914;28;20072;-75
2023/09/19 11:28:35;;;;;;;8.63;3.00;;;;;;;19.80;77.26;99447.31;5017065;28;20050;-74
2023/09/19 11:31:57;;;;;;;3.88;3.03;;;;;;;19.81;77.26;99460.44;5020208;28;20053;-74
2023/09/19 11:34:48;;;;;;;11.13;2.85;;;;;;;19.82;76.66;99451.53;5017541;28;20093;-76